createdAt,value
2022-08-16T00:01:34.220Z,7.20
2022-08-16T00:04:07.830Z,7.07
2022-08-16T00:06:39.404Z,9.43
2022-08-16T00:09:07.876Z,8.45
2022-08-16T00:11:40.925Z,7.93
2022-08-16T00:14:17.456Z,7.13
2022-08-16T00:17:00.824Z,7.38
2022-08-16T00:19:41.633Z,6.85
2022-08-16T00:22:12.720Z,6.95
2022-08-16T00:24:41.313Z,7.40
2022-08-16T00:27:12.358Z,6.82
2022-08-16T00:29:39.644Z,8.60
2022-08-16T00:32:10.966Z,7.82
2022-08-16T00:34:44.374Z,8.48
2022-08-16T00:37:25.102Z,7.80
2022-08-16T00:40:34.769Z,6.55
2022-08-16T00:43:19.137Z,7.35
2022-08-16T00:46:33.239Z,7.68
2022-08-16T00:49:03.232Z,7.60
2022-08-16T00:51:31.212Z,8.45
2022-08-16T00:53:59.894Z,10.02
2022-08-16T00:56:57.194Z,6.75
2022-08-16T00:59:23.840Z,8.40
2022-08-16T01:01:53.040Z,9.73
2022-08-16T01:04:29.852Z,8.65
2022-08-16T01:07:01.876Z,7.40
2022-08-16T01:09:33.427Z,9.80
2022-08-16T01:12:08.701Z,10.15
2022-08-16T01:14:45.625Z,9.50
2022-08-16T01:17:16.102Z,7.97
2022-08-16T01:19:50.797Z,8.75
2022-08-16T01:22:48.426Z,8.18
2022-08-16T01:25:36.374Z,8.73
2022-08-16T01:28:10.508Z,9.15
2022-08-16T01:30:56.488Z,8.00
2022-08-16T01:33:24.273Z,8.15
2022-08-16T01:36:11.766Z,8.20
2022-08-16T01:38:44.947Z,9.18
2022-08-16T01:41:24.764Z,9.10
2022-08-16T01:43:54.752Z,7.70
2022-08-16T01:46:47.484Z,7.45
2022-08-16T01:49:43.086Z,8.27
2022-08-16T01:52:29.278Z,9.05
2022-08-16T01:54:58.244Z,8.30
2022-08-16T01:57:27.710Z,8.88
2022-08-16T01:59:56.165Z,10.10
2022-08-16T02:02:28.578Z,9.25
2022-08-16T02:05:00.259Z,8.82
2022-08-16T02:07:30.630Z,7.30
2022-08-16T02:09:59.811Z,12.00
2022-08-16T02:12:50.125Z,7.32
2022-08-16T02:15:25.518Z,10.43
2022-08-16T02:20:26.467Z,7.47
2022-08-16T02:23:01.829Z,7.60
2022-08-16T02:25:52.042Z,7.25
2022-08-16T02:28:23.747Z,9.23
2022-08-16T02:30:52.556Z,7.53
2022-08-16T02:33:24.438Z,9.23
2022-08-16T02:36:05.450Z,9.45
2022-08-16T02:38:41.560Z,7.43
2022-08-16T02:41:12.107Z,8.43
2022-08-16T02:43:40.572Z,7.82
2022-08-16T02:46:09.874Z,7.18
2022-08-16T02:48:39.295Z,8.32
2022-08-16T02:51:16.416Z,6.88
2022-08-16T02:53:47.333Z,8.00
2022-08-16T02:56:17.292Z,8.48
2022-08-16T02:58:47.697Z,7.40
2022-08-16T03:01:25.325Z,9.30
2022-08-16T03:04:39.315Z,7.88
2022-08-16T03:06:56.623Z,8.40
2022-08-16T03:09:28.727Z,9.90
2022-08-16T03:11:57.780Z,8.23
2022-08-16T03:14:26.011Z,8.07
2022-08-16T03:16:59.106Z,9.05
2022-08-16T03:22:19.342Z,8.32
2022-08-16T03:24:58.772Z,9.10
2022-08-16T03:27:30.931Z,9.80
2022-08-16T03:30:27.761Z,11.63
2022-08-16T03:32:55.654Z,8.07
2022-08-16T03:35:32.852Z,8.38
2022-08-16T03:38:34.372Z,7.95
2022-08-16T03:40:53.807Z,9.52
2022-08-16T03:43:21.717Z,8.68
2022-08-16T03:45:52.718Z,10.27
2022-08-16T03:48:39.569Z,8.13
2022-08-16T03:51:12.409Z,9.80
2022-08-16T03:53:41.987Z,8.70
2022-08-16T03:56:19.485Z,7.93
2022-08-16T03:58:50.752Z,10.40
2022-08-16T04:01:19.106Z,9.60
2022-08-16T04:03:46.871Z,7.22
2022-08-16T04:06:17.270Z,9.40
2022-08-16T04:08:45.244Z,8.43
2022-08-16T04:11:16.476Z,9.07
2022-08-16T04:16:26.357Z,11.57
2022-08-16T04:18:54.548Z,10.10
2022-08-16T04:21:35.433Z,11.57
2022-08-16T04:24:03.686Z,10.57
2022-08-16T04:26:36.301Z,8.57
2022-08-16T04:29:16.222Z,8.63
2022-08-16T04:31:55.483Z,8.07
2022-08-16T04:34:26.467Z,10.65
2022-08-16T04:36:55.058Z,9.20
2022-08-16T04:39:44.843Z,9.20
2022-08-16T04:42:12.960Z,11.20
2022-08-16T04:44:53.673Z,9.07
2022-08-16T04:47:35.814Z,9.35
2022-08-16T04:50:23.430Z,8.85
2022-08-16T04:52:58.976Z,10.45
2022-08-16T04:55:37.626Z,9.40
2022-08-16T04:58:45.192Z,10.35
2022-08-16T05:00:55.239Z,9.57
2022-08-16T05:03:24.695Z,8.82
2022-08-16T05:05:55.850Z,8.82
2022-08-16T05:08:31.030Z,9.10
2022-08-16T05:11:08.331Z,8.55
2022-08-16T05:13:42.566Z,9.00
2022-08-16T05:16:21.764Z,10.45
2022-08-16T05:18:53.892Z,13.35
2022-08-16T05:21:28.455Z,11.95
2022-08-16T05:24:07.803Z,11.65
2022-08-16T05:26:43.279Z,12.93
2022-08-16T05:29:17.855Z,10.68
2022-08-16T05:31:53.309Z,12.98
2022-08-16T05:34:22.514Z,11.88
2022-08-16T05:36:51.350Z,14.10
2022-08-16T05:39:20.554Z,15.32
2022-08-16T05:41:51.590Z,13.63
2022-08-16T05:44:22.965Z,15.73
2022-08-16T05:47:00.044Z,16.23
2022-08-16T05:49:39.480Z,17.73
2022-08-16T05:52:11.514Z,14.13
2022-08-16T05:57:20.693Z,14.65
2022-08-16T05:59:50.387Z,14.73
2022-08-16T06:02:29.861Z,13.48
2022-08-16T06:05:02.114Z,13.35
2022-08-16T06:07:32.059Z,12.65
2022-08-16T06:10:00.409Z,13.00
2022-08-16T06:12:29.610Z,12.05
2022-08-16T06:15:09.700Z,14.55
2022-08-16T06:17:43.246Z,14.63
2022-08-16T06:20:24.408Z,10.95
2022-08-16T06:23:04.059Z,12.52
2022-08-16T06:25:39.751Z,14.43
2022-08-16T06:28:17.024Z,14.48
2022-08-16T06:31:01.946Z,12.35
2022-08-16T06:33:29.515Z,11.30
2022-08-16T06:36:09.408Z,12.23
2022-08-16T06:38:37.287Z,11.30
2022-08-16T06:41:13.921Z,12.65
2022-08-16T06:43:42.270Z,10.30
2022-08-16T06:46:23.529Z,11.68
2022-08-16T06:48:59.690Z,13.07
2022-08-16T06:51:45.982Z,15.40
2022-08-16T06:54:14.444Z,11.95
2022-08-16T06:56:42.660Z,13.15
2022-08-16T06:59:11.101Z,13.13
2022-08-16T07:01:45.201Z,10.52
2022-08-16T07:04:33.217Z,16.58
2022-08-16T07:07:09.736Z,12.10
2022-08-16T07:09:37.609Z,10.82
2022-08-16T07:12:06.095Z,12.40
2022-08-16T07:14:35.029Z,10.80
2022-08-16T07:17:08.397Z,10.38
2022-08-16T07:20:29.408Z,9.48
2022-08-16T07:22:30.528Z,11.85
2022-08-16T07:25:14.098Z,10.73
2022-08-16T07:27:43.645Z,10.38
2022-08-16T07:30:46.101Z,9.95
2022-08-16T07:33:02.640Z,12.90
2022-08-16T07:35:30.429Z,10.55
2022-08-16T07:37:57.731Z,9.10
2022-08-16T07:40:58.379Z,10.13
2022-08-16T07:43:13.588Z,11.38
2022-08-16T07:45:43.042Z,10.65
2022-08-16T07:48:11.890Z,11.80
2022-08-16T07:50:55.674Z,9.98
2022-08-16T07:53:28.756Z,11.63
2022-08-16T07:55:57.996Z,10.85
2022-08-16T07:58:34.844Z,10.63
2022-08-16T08:01:10.657Z,10.73
2022-08-16T08:03:48.238Z,9.68
2022-08-16T08:06:24.990Z,13.80
2022-08-16T08:08:57.031Z,11.55
2022-08-16T08:11:28.145Z,10.23
2022-08-16T08:14:02.948Z,10.38
2022-08-16T08:16:32.526Z,10.38
2022-08-16T08:19:02.684Z,11.63
2022-08-16T08:22:00.620Z,10.43
2022-08-16T08:24:31.802Z,11.18
2022-08-16T08:27:02.103Z,12.40
2022-08-16T08:29:37.676Z,13.80
2022-08-16T08:32:57.061Z,13.73
2022-08-16T08:35:00.375Z,12.85
2022-08-16T08:37:55.481Z,13.95
2022-08-16T08:40:26.684Z,10.63
2022-08-16T08:43:12.192Z,11.00
2022-08-16T08:45:48.878Z,9.57
2022-08-16T08:48:33.648Z,12.10
2022-08-16T08:51:05.475Z,9.52
2022-08-16T08:53:37.907Z,10.98
2022-08-16T08:56:23.217Z,13.85
2022-08-16T08:58:59.054Z,11.63
2022-08-16T09:01:36.498Z,9.90
2022-08-16T09:04:14.813Z,8.38
2022-08-16T09:06:45.558Z,10.48
2022-08-16T09:09:16.573Z,7.72
2022-08-16T09:11:52.730Z,11.43
2022-08-16T09:14:23.905Z,9.65
2022-08-16T09:17:03.314Z,10.13
2022-08-16T09:19:34.648Z,11.70
2022-08-16T09:22:03.303Z,12.70
2022-08-16T09:24:51.946Z,9.65
2022-08-16T09:27:25.404Z,11.57
2022-08-16T09:34:59.785Z,12.65
2022-08-16T09:37:34.856Z,10.40
2022-08-16T09:40:31.924Z,8.20
2022-08-16T09:42:59.034Z,9.95
2022-08-16T09:45:28.979Z,10.50
2022-08-16T09:47:58.467Z,11.15
2022-08-16T09:50:37.076Z,10.20
2022-08-16T09:53:16.987Z,9.82
2022-08-16T09:55:49.280Z,8.68
2022-08-16T09:58:37.652Z,9.88
2022-08-16T10:01:11.197Z,10.32
2022-08-16T10:04:01.732Z,9.75
2022-08-16T10:06:21.800Z,11.30
2022-08-16T10:09:04.256Z,8.85
2022-08-16T10:14:24.795Z,9.82
2022-08-16T10:17:06.332Z,8.60
2022-08-16T10:19:34.474Z,12.07
2022-08-16T10:22:04.927Z,8.63
2022-08-16T10:24:33.899Z,9.00
2022-08-16T10:27:22.261Z,13.18
2022-08-16T10:30:00.626Z,8.98
2022-08-16T10:32:32.169Z,9.68
2022-08-16T10:35:00.316Z,10.38
2022-08-16T10:37:36.370Z,10.50
2022-08-16T10:40:29.588Z,9.13
2022-08-16T10:43:02.074Z,10.18
2022-08-16T10:45:37.002Z,11.90
2022-08-16T10:48:27.695Z,9.20
2022-08-16T10:51:00.283Z,7.88
2022-08-16T10:53:33.229Z,8.75
2022-08-16T10:56:52.393Z,8.40
2022-08-16T10:59:38.131Z,8.65
2022-08-16T11:02:21.711Z,7.57
2022-08-16T11:11:01.570Z,8.80
2022-08-16T11:15:57.790Z,6.82
2022-08-16T11:18:54.880Z,7.80
2022-08-16T11:21:28.680Z,10.18
2022-08-16T11:26:27.216Z,8.65
2022-08-16T11:29:13.141Z,9.10
2022-08-16T11:31:45.409Z,8.48
2022-08-16T11:34:19.621Z,7.90
2022-08-16T11:36:59.420Z,8.68
2022-08-16T11:39:30.754Z,7.97
2022-08-16T11:41:59.210Z,9.43
2022-08-16T11:44:52.251Z,8.02
2022-08-16T11:47:14.354Z,7.32
2022-08-16T11:49:41.726Z,9.13
2022-08-16T11:52:09.060Z,8.02
2022-08-16T11:54:36.812Z,8.52
2022-08-16T11:57:09.326Z,7.13
2022-08-16T11:59:39.977Z,7.57
2022-08-16T12:02:32.041Z,7.43
2022-08-16T12:04:56.921Z,9.50
2022-08-16T12:07:24.919Z,8.30
2022-08-16T12:09:53.995Z,12.45
2022-08-16T12:12:23.716Z,11.00
2022-08-16T12:14:59.456Z,14.20
2022-08-16T12:17:31.871Z,17.70
2022-08-16T12:20:00.872Z,22.13
2022-08-16T12:22:29.155Z,11.02
2022-08-16T12:24:56.561Z,11.30
2022-08-16T12:27:26.687Z,10.85
2022-08-16T12:29:58.436Z,13.88
2022-08-16T12:32:37.780Z,9.10
2022-08-16T12:35:15.695Z,9.88
2022-08-16T12:37:46.253Z,10.43
2022-08-16T12:40:24.769Z,8.70
2022-08-16T12:43:00.698Z,9.90
2022-08-16T12:45:36.288Z,11.13
2022-08-16T12:48:40.167Z,9.00
2022-08-16T12:51:19.571Z,8.55
2022-08-16T12:53:52.204Z,13.38
2022-08-16T12:56:25.403Z,14.10
2022-08-16T12:58:55.960Z,18.52
2022-08-16T13:01:30.538Z,17.05
2022-08-16T13:04:12.292Z,15.98
2022-08-16T13:06:52.295Z,14.27
2022-08-16T13:09:23.614Z,14.57
2022-08-16T13:12:03.385Z,12.35
2022-08-16T13:14:43.892Z,13.98
2022-08-16T13:17:18.677Z,17.08
2022-08-16T13:20:07.122Z,19.77
2022-08-16T13:23:01.365Z,15.20
2022-08-16T13:25:35.357Z,12.70
2022-08-16T13:28:04.717Z,10.30
2022-08-16T13:30:42.556Z,9.55
2022-08-16T13:33:17.574Z,16.50
2022-08-16T13:35:55.900Z,6.80
2022-08-16T13:38:25.789Z,11.38
2022-08-16T13:40:56.785Z,12.32
2022-08-16T13:43:32.482Z,12.48
2022-08-16T13:46:04.419Z,10.00
2022-08-16T13:48:43.019Z,9.25
2022-08-16T13:51:18.758Z,12.18
2022-08-16T13:53:58.359Z,13.00
2022-08-16T13:56:34.246Z,11.38
2022-08-16T13:59:21.172Z,11.88
2022-08-16T14:01:59.592Z,11.52
2022-08-16T14:04:35.319Z,9.85
2022-08-16T14:07:09.589Z,9.45
2022-08-16T14:09:38.746Z,10.40
2022-08-16T14:12:22.536Z,10.95
2022-08-16T14:14:54.496Z,10.80
2022-08-16T14:17:24.752Z,9.13
2022-08-16T14:19:52.422Z,8.60
2022-08-16T14:22:35.997Z,9.40
2022-08-16T14:25:16.368Z,10.88
2022-08-16T14:27:44.230Z,9.73
2022-08-16T14:30:16.355Z,11.30
2022-08-16T14:32:47.745Z,9.68
2022-08-16T14:35:36.677Z,9.07
2022-08-16T14:38:18.054Z,8.48
2022-08-16T14:40:51.028Z,8.52
2022-08-16T14:43:20.581Z,8.07
2022-08-16T14:45:50.607Z,8.48
2022-08-16T14:48:25.129Z,9.70
2022-08-16T14:50:53.894Z,7.65
2022-08-16T14:53:21.273Z,8.00
2022-08-16T14:55:49.770Z,8.65
2022-08-16T14:58:18.905Z,6.63
2022-08-16T15:00:50.261Z,7.13
2022-08-16T15:03:21.857Z,8.32
2022-08-16T15:05:54.071Z,9.80
2022-08-16T15:08:22.009Z,11.35
2022-08-16T15:11:07.662Z,11.13
2022-08-16T15:13:35.412Z,10.07
2022-08-16T15:16:03.824Z,11.93
2022-08-16T15:18:33.606Z,8.93
2022-08-16T15:21:02.594Z,8.20
2022-08-16T15:23:34.099Z,8.77
2022-08-16T15:26:03.490Z,8.48
2022-08-16T15:28:33.105Z,8.18
2022-08-16T15:31:07.275Z,8.90
2022-08-16T15:33:46.287Z,10.07
2022-08-16T15:36:21.319Z,6.55
2022-08-16T15:39:02.105Z,9.15
2022-08-16T15:41:44.827Z,8.32
2022-08-16T15:44:23.149Z,7.47
2022-08-16T15:46:56.469Z,10.38
2022-08-16T15:49:37.565Z,8.35
2022-08-16T15:52:29.218Z,8.10
2022-08-16T15:55:00.393Z,9.95
2022-08-16T15:57:41.304Z,8.43
2022-08-16T16:00:14.564Z,8.00
2022-08-16T16:02:43.677Z,7.85
2022-08-16T16:05:11.180Z,7.85
2022-08-16T16:07:55.751Z,10.15
2022-08-16T16:10:28.368Z,12.32
2022-08-16T16:13:03.781Z,10.15
2022-08-16T16:15:37.310Z,11.40
2022-08-16T16:18:09.306Z,9.10
2022-08-16T16:20:38.943Z,8.45
2022-08-16T16:23:11.093Z,9.40
2022-08-16T16:25:43.955Z,8.27
2022-08-16T16:29:06.645Z,9.48
2022-08-16T16:31:06.358Z,9.73
2022-08-16T16:33:37.012Z,11.57
2022-08-16T16:36:06.999Z,10.45
2022-08-16T16:38:34.835Z,11.05
2022-08-16T16:41:09.851Z,12.18
2022-08-16T16:43:41.003Z,10.88
2022-08-16T16:46:39.286Z,10.40
2022-08-16T16:48:58.107Z,9.75
2022-08-16T16:51:28.152Z,10.82
2022-08-16T16:53:57.156Z,10.35
2022-08-16T16:56:33.236Z,10.45
2022-08-16T16:59:10.722Z,13.05
2022-08-16T17:01:59.482Z,10.20
2022-08-16T17:04:31.609Z,9.88
2022-08-16T17:07:01.312Z,11.98
2022-08-16T17:09:29.540Z,10.95
2022-08-16T17:11:58.456Z,15.40
2022-08-16T17:14:33.254Z,12.77
2022-08-16T17:17:06.188Z,13.07
2022-08-16T17:19:34.532Z,12.68
2022-08-16T17:25:02.127Z,15.98
2022-08-16T17:27:32.950Z,11.80
2022-08-16T17:30:15.685Z,16.35
2022-08-16T17:32:54.546Z,15.65
2022-08-16T17:35:33.730Z,13.65
2022-08-16T17:38:07.675Z,14.68
2022-08-16T17:39:28.306Z,14.23
2022-08-16T17:40:55.341Z,13.82
2022-08-16T17:43:43.854Z,17.30
2022-08-16T17:46:41.341Z,12.35
2022-08-16T17:49:14.107Z,10.30
2022-08-16T17:51:42.220Z,11.95
2022-08-16T17:54:18.381Z,13.45
2022-08-16T17:57:01.104Z,9.52
2022-08-16T17:59:30.225Z,10.15
2022-08-16T18:01:58.844Z,10.90
2022-08-16T18:04:48.585Z,13.43
2022-08-16T18:07:14.633Z,11.35
2022-08-16T18:09:42.218Z,10.73
2022-08-16T18:12:44.786Z,12.27
2022-08-16T18:15:09.668Z,13.00
2022-08-16T18:17:36.875Z,11.73
2022-08-16T18:20:29.017Z,11.60
2022-08-16T18:23:15.191Z,11.98
2022-08-16T18:25:52.270Z,11.85
2022-08-16T18:28:20.249Z,12.23
2022-08-16T18:31:00.817Z,12.07
2022-08-16T18:33:29.642Z,14.18
2022-08-16T18:35:58.476Z,9.90
2022-08-16T18:38:26.058Z,9.93
2022-08-16T18:40:53.566Z,13.90
2022-08-16T18:44:22.772Z,14.75
2022-08-16T18:46:10.954Z,14.88
2022-08-16T18:48:38.161Z,10.77
2022-08-16T18:51:10.331Z,12.05
2022-08-16T18:53:40.405Z,11.18
2022-08-16T18:56:07.701Z,11.25
2022-08-16T18:58:35.311Z,11.45
2022-08-16T19:01:02.560Z,10.85
2022-08-16T19:03:32.961Z,9.82
2022-08-16T19:06:11.413Z,9.00
2022-08-16T19:08:43.684Z,11.63
2022-08-16T19:11:15.163Z,10.95
2022-08-16T19:13:44.506Z,9.70
2022-08-16T19:16:12.632Z,11.85
2022-08-16T19:18:40.462Z,10.80
2022-08-16T19:21:14.462Z,9.15
2022-08-16T19:23:44.217Z,11.15
2022-08-16T19:26:24.645Z,10.05
2022-08-16T19:28:58.355Z,11.60
2022-08-16T19:31:31.798Z,11.48
2022-08-16T19:34:00.229Z,10.13
2022-08-16T19:36:36.885Z,14.98
2022-08-16T19:39:12.292Z,11.55
2022-08-16T19:41:45.020Z,11.07
2022-08-16T19:44:13.461Z,11.55
2022-08-16T19:46:45.743Z,10.43
2022-08-16T19:49:16.249Z,12.77
2022-08-16T19:51:45.901Z,9.00
2022-08-16T19:54:13.173Z,10.82
2022-08-16T19:56:40.481Z,11.38
2022-08-16T19:59:40.236Z,12.00
2022-08-16T20:01:55.298Z,10.65
2022-08-16T20:04:24.570Z,12.73
2022-08-16T20:06:53.393Z,12.20
2022-08-16T20:09:22.061Z,11.48
2022-08-16T20:11:52.432Z,10.10
2022-08-16T20:14:25.378Z,11.75
2022-08-16T20:16:55.790Z,9.40
2022-08-16T20:19:23.400Z,12.45
2022-08-16T20:21:50.819Z,10.85
2022-08-16T20:24:35.131Z,12.43
2022-08-16T20:27:06.474Z,11.32
2022-08-16T20:29:34.198Z,12.65
2022-08-16T20:32:02.387Z,10.30
2022-08-16T20:34:29.654Z,11.85
2022-08-16T20:37:00.007Z,10.77
2022-08-16T20:39:28.007Z,9.52
2022-08-16T20:44:40.572Z,10.65
2022-08-16T20:47:08.854Z,10.07
2022-08-16T20:49:37.401Z,10.95
2022-08-16T20:52:14.518Z,9.75
2022-08-16T20:54:42.939Z,10.05
2022-08-16T20:57:11.373Z,11.05
2022-08-16T20:59:39.956Z,11.20
2022-08-16T21:02:14.047Z,11.55
2022-08-16T21:04:41.671Z,11.45
2022-08-16T21:07:10.519Z,11.68
2022-08-16T21:09:38.283Z,10.07
2022-08-16T21:12:13.684Z,10.50
2022-08-16T21:14:45.579Z,13.75
2022-08-16T21:17:16.047Z,9.43
2022-08-16T21:19:45.146Z,12.90
2022-08-16T21:22:17.715Z,11.63
2022-08-16T21:24:46.677Z,10.30
2022-08-16T21:27:17.529Z,12.45
2022-08-16T21:29:46.079Z,10.25
2022-08-16T21:32:35.211Z,11.65
2022-08-16T21:35:15.575Z,11.30
2022-08-16T21:37:43.045Z,11.50
2022-08-16T21:40:34.036Z,13.52
2022-08-16T21:43:14.693Z,12.07
2022-08-16T21:45:44.525Z,16.52
2022-08-16T21:48:12.065Z,10.23
2022-08-16T21:50:41.783Z,11.82
2022-08-16T21:53:19.662Z,12.13
2022-08-16T21:55:52.741Z,18.67
2022-08-16T21:58:20.582Z,16.33
2022-08-16T22:00:48.808Z,9.60
2022-08-16T22:03:16.868Z,14.02
2022-08-16T22:06:12.408Z,13.93
2022-08-16T22:08:39.417Z,11.27
2022-08-16T22:11:16.143Z,10.75
2022-08-16T22:13:43.414Z,12.07
2022-08-16T22:16:19.265Z,17.80
2022-08-16T22:18:52.436Z,11.73
2022-08-16T22:21:20.508Z,13.15
2022-08-16T22:23:56.833Z,11.07
2022-08-16T22:26:32.433Z,10.63
2022-08-16T22:29:08.692Z,11.90
2022-08-16T22:31:38.735Z,12.18
2022-08-16T22:34:07.885Z,11.98
2022-08-16T22:36:35.991Z,10.65
2022-08-16T22:39:08.566Z,12.45
2022-08-16T22:41:38.219Z,14.48
2022-08-16T22:44:07.055Z,9.30
2022-08-16T22:46:36.682Z,11.95
2022-08-16T22:49:06.417Z,14.02
2022-08-16T22:51:35.099Z,12.55
2022-08-16T22:54:33.923Z,10.48
2022-08-16T22:56:52.114Z,9.65
2022-08-16T22:59:19.352Z,12.05
2022-08-16T23:01:47.099Z,10.93
2022-08-16T23:04:14.309Z,10.10
2022-08-16T23:06:41.598Z,11.82
2022-08-16T23:09:09.273Z,11.43
2022-08-16T23:11:36.522Z,11.35
2022-08-16T23:14:03.894Z,11.45
2022-08-16T23:16:34.680Z,11.35
2022-08-16T23:19:09.477Z,12.60
2022-08-16T23:21:40.743Z,11.07
2022-08-16T23:24:09.494Z,15.05
2022-08-16T23:26:46.883Z,11.70
2022-08-16T23:29:25.289Z,13.38
2022-08-16T23:32:11.824Z,14.32
2022-08-16T23:34:39.447Z,11.30
2022-08-16T23:37:06.902Z,10.50
2022-08-16T23:39:35.966Z,10.52
2022-08-16T23:42:14.587Z,10.30
2022-08-16T23:44:58.704Z,11.75
2022-08-16T23:47:26.428Z,9.98
2022-08-16T23:50:01.253Z,12.45
2022-08-16T23:52:53.209Z,13.30
2022-08-16T23:55:17.977Z,10.93
2022-08-16T23:57:46.355Z,10.95
